<?xml version="1.0" encoding="UTF-8" standalone="no" ?>
<gpx xmlns="http://www.topografix.com/GPX/1/1" xmlns:xsi="http://www.w3.org/2001/XMLSchema-instance" xsi:schemaLocation="http://www.topografix.com/GPX/1/1 http://www.topografix.com/GPX/1/1/gpx.xsd" version="1.1" creator="VisuGPX - https://www.visugpx.com">
  <metadata>
    <name>2017-09-17 Ribeauvillé Trois châteaux</name>
    <desc><![CDATA[2017-09-17 Ribeauvillé Trois châteaux, randonnée des Forts Trotters.]]></desc>
  </metadata>
  <trk>
    <name><![CDATA[OR-8036444--Thannenkirch:2017-09-17 Ribeauvillé Trois châteaux]]></name>
    <trkseg>
      <trkpt lat="48.22693" lon="7.30433">
        <ele>466</ele>
        <time>2017-10-22T22:22:16Z</time>
      </trkpt>
      <trkpt lat="48.2259" lon="7.3046">
        <ele>460</ele>
        <time>2017-10-22T22:24:16Z</time>
      </trkpt>
      <trkpt lat="48.22521" lon="7.30372">
        <ele>474</ele>
        <time>2017-10-22T22:26:16Z</time>
      </trkpt>
      <trkpt lat="48.2245" lon="7.30471">
        <ele>473</ele>
        <time>2017-10-22T22:28:16Z</time>
      </trkpt>
      <trkpt lat="48.22235" lon="7.30385">
        <ele>524</ele>
        <time>2017-10-22T22:30:16Z</time>
      </trkpt>
      <trkpt lat="48.22169" lon="7.3061">
        <ele>527</ele>
        <time>2017-10-22T22:32:16Z</time>
      </trkpt>
      <trkpt lat="48.22103" lon="7.30636">
        <ele>532</ele>
        <time>2017-10-22T22:34:16Z</time>
      </trkpt>
      <trkpt lat="48.21924" lon="7.3046">
        <ele>580</ele>
        <time>2017-10-22T22:36:16Z</time>
      </trkpt>
      <trkpt lat="48.21869" lon="7.30467">
        <ele>590</ele>
        <time>2017-10-22T22:38:16Z</time>
      </trkpt>
      <trkpt lat="48.21801" lon="7.30608">
        <ele>587</ele>
        <time>2017-10-22T22:40:16Z</time>
      </trkpt>
      <trkpt lat="48.21732" lon="7.30595">
        <ele>595</ele>
        <time>2017-10-22T22:42:16Z</time>
      </trkpt>
      <trkpt lat="48.21698" lon="7.30553">
        <ele>598</ele>
        <time>2017-10-22T22:44:16Z</time>
      </trkpt>
      <trkpt lat="48.21652" lon="7.30407">
        <ele>621</ele>
        <time>2017-10-22T22:46:16Z</time>
      </trkpt>
      <trkpt lat="48.21638" lon="7.30205">
        <ele>636</ele>
        <time>2017-10-22T22:48:16Z</time>
      </trkpt>
      <trkpt lat="48.21712" lon="7.30123">
        <ele>649</ele>
        <time>2017-10-22T22:50:16Z</time>
      </trkpt>
      <trkpt lat="48.21718" lon="7.29815">
        <ele>649</ele>
        <time>2017-10-22T22:52:16Z</time>
      </trkpt>
      <trkpt lat="48.21511" lon="7.29602">
        <ele>649</ele>
        <time>2017-10-22T22:54:16Z</time>
      </trkpt>
      <trkpt lat="48.2183" lon="7.29634">
        <ele>719</ele>
        <time>2017-10-22T22:56:16Z</time>
      </trkpt>
      <trkpt lat="48.21995" lon="7.29718">
        <ele>736</ele>
        <time>2017-10-22T22:58:16Z</time>
      </trkpt>
      <trkpt lat="48.21998" lon="7.29658">
        <ele>743</ele>
        <time>2017-10-22T23:00:16Z</time>
      </trkpt>
      <trkpt lat="48.22001" lon="7.29613">
        <ele>753</ele>
        <time>2017-10-22T23:02:16Z</time>
      </trkpt>
      <trkpt lat="48.22041" lon="7.29526">
        <ele>776</ele>
        <time>2017-10-22T23:04:16Z</time>
      </trkpt>
      <trkpt lat="48.22168" lon="7.29292">
        <ele>840</ele>
        <time>2017-10-22T23:06:16Z</time>
      </trkpt>
      <trkpt lat="48.22165" lon="7.29259">
        <ele>854</ele>
        <time>2017-10-22T23:08:16Z</time>
      </trkpt>
      <trkpt lat="48.22272" lon="7.29171">
        <ele>867</ele>
        <time>2017-10-22T23:10:16Z</time>
      </trkpt>
      <trkpt lat="48.22142" lon="7.29202">
        <ele>877</ele>
        <time>2017-10-22T23:12:16Z</time>
      </trkpt>
      <trkpt lat="48.22177" lon="7.29119">
        <ele>889</ele>
        <time>2017-10-22T23:14:16Z</time>
      </trkpt>
      <trkpt lat="48.2205" lon="7.29163">
        <ele>894</ele>
        <time>2017-10-22T23:16:16Z</time>
      </trkpt>
      <trkpt lat="48.21992" lon="7.29121">
        <ele>887</ele>
        <time>2017-10-22T23:18:16Z</time>
      </trkpt>
      <trkpt lat="48.22063" lon="7.29126">
        <ele>896</ele>
        <time>2017-10-22T23:20:16Z</time>
      </trkpt>
      <trkpt lat="48.22217" lon="7.29056">
        <ele>885</ele>
        <time>2017-10-22T23:22:16Z</time>
      </trkpt>
      <trkpt lat="48.22353" lon="7.28941">
        <ele>875</ele>
        <time>2017-10-22T23:24:16Z</time>
      </trkpt>
      <trkpt lat="48.224" lon="7.28861">
        <ele>871</ele>
        <time>2017-10-22T23:26:16Z</time>
      </trkpt>
      <trkpt lat="48.22509" lon="7.28618">
        <ele>849</ele>
        <time>2017-10-22T23:28:16Z</time>
      </trkpt>
      <trkpt lat="48.22385" lon="7.28761">
        <ele>839</ele>
        <time>2017-10-22T23:30:16Z</time>
      </trkpt>
      <trkpt lat="48.22264" lon="7.28859">
        <ele>825</ele>
        <time>2017-10-22T23:32:16Z</time>
      </trkpt>
      <trkpt lat="48.2209" lon="7.28847">
        <ele>808</ele>
        <time>2017-10-22T23:34:16Z</time>
      </trkpt>
      <trkpt lat="48.21864" lon="7.28844">
        <ele>773</ele>
        <time>2017-10-22T23:36:16Z</time>
      </trkpt>
      <trkpt lat="48.21772" lon="7.28823">
        <ele>751</ele>
        <time>2017-10-22T23:38:16Z</time>
      </trkpt>
      <trkpt lat="48.21712" lon="7.28889">
        <ele>753</ele>
        <time>2017-10-22T23:40:16Z</time>
      </trkpt>
      <trkpt lat="48.21671" lon="7.28932">
        <ele>749</ele>
        <time>2017-10-22T23:42:16Z</time>
      </trkpt>
      <trkpt lat="48.21629" lon="7.28924">
        <ele>737</ele>
        <time>2017-10-22T23:44:16Z</time>
      </trkpt>
      <trkpt lat="48.21605" lon="7.28921">
        <ele>730</ele>
        <time>2017-10-22T23:46:16Z</time>
      </trkpt>
      <trkpt lat="48.21562" lon="7.28912">
        <ele>721</ele>
        <time>2017-10-22T23:48:16Z</time>
      </trkpt>
      <trkpt lat="48.21475" lon="7.28957">
        <ele>715</ele>
        <time>2017-10-22T23:50:16Z</time>
      </trkpt>
      <trkpt lat="48.21596" lon="7.29281">
        <ele>687</ele>
        <time>2017-10-22T23:52:16Z</time>
      </trkpt>
      <trkpt lat="48.21548" lon="7.29582">
        <ele>655</ele>
        <time>2017-10-22T23:54:16Z</time>
      </trkpt>
      <trkpt lat="48.21513" lon="7.29578">
        <ele>648</ele>
        <time>2017-10-22T23:56:16Z</time>
      </trkpt>
      <trkpt lat="48.21477" lon="7.29339">
        <ele>643</ele>
        <time>2017-10-22T23:58:16Z</time>
      </trkpt>
      <trkpt lat="48.2132" lon="7.29567">
        <ele>588</ele>
        <time>2017-10-23T00:00:16Z</time>
      </trkpt>
      <trkpt lat="48.21167" lon="7.2963">
        <ele>557</ele>
        <time>2017-10-23T00:02:16Z</time>
      </trkpt>
      <trkpt lat="48.21025" lon="7.29591">
        <ele>529</ele>
        <time>2017-10-23T00:04:16Z</time>
      </trkpt>
      <trkpt lat="48.20996" lon="7.2955">
        <ele>521</ele>
        <time>2017-10-23T00:06:16Z</time>
      </trkpt>
      <trkpt lat="48.20977" lon="7.29493">
        <ele>514</ele>
        <time>2017-10-23T00:08:16Z</time>
      </trkpt>
      <trkpt lat="48.2091" lon="7.29426">
        <ele>502</ele>
        <time>2017-10-23T00:10:16Z</time>
      </trkpt>
      <trkpt lat="48.20863" lon="7.29407">
        <ele>494</ele>
        <time>2017-10-23T00:12:16Z</time>
      </trkpt>
      <trkpt lat="48.20784" lon="7.29396">
        <ele>477</ele>
        <time>2017-10-23T00:14:16Z</time>
      </trkpt>
      <trkpt lat="48.2074" lon="7.29381">
        <ele>469</ele>
        <time>2017-10-23T00:16:16Z</time>
      </trkpt>
      <trkpt lat="48.20694" lon="7.29344">
        <ele>459</ele>
        <time>2017-10-23T00:18:16Z</time>
      </trkpt>
      <trkpt lat="48.20597" lon="7.29321">
        <ele>445</ele>
        <time>2017-10-23T00:20:16Z</time>
      </trkpt>
      <trkpt lat="48.2054" lon="7.29287">
        <ele>444</ele>
        <time>2017-10-23T00:22:16Z</time>
      </trkpt>
      <trkpt lat="48.20482" lon="7.29317">
        <ele>429</ele>
        <time>2017-10-23T00:24:16Z</time>
      </trkpt>
      <trkpt lat="48.20441" lon="7.29358">
        <ele>418</ele>
        <time>2017-10-23T00:26:16Z</time>
      </trkpt>
      <trkpt lat="48.20421" lon="7.29424">
        <ele>408</ele>
        <time>2017-10-23T00:28:16Z</time>
      </trkpt>
      <trkpt lat="48.20424" lon="7.29482">
        <ele>417</ele>
        <time>2017-10-23T00:30:16Z</time>
      </trkpt>
      <trkpt lat="48.20457" lon="7.29439">
        <ele>426</ele>
        <time>2017-10-23T00:32:16Z</time>
      </trkpt>
      <trkpt lat="48.20527" lon="7.29308">
        <ele>437</ele>
        <time>2017-10-23T00:34:16Z</time>
      </trkpt>
      <trkpt lat="48.20597" lon="7.29319">
        <ele>445</ele>
        <time>2017-10-23T00:36:16Z</time>
      </trkpt>
      <trkpt lat="48.20755" lon="7.29486">
        <ele>481</ele>
        <time>2017-10-23T00:38:16Z</time>
      </trkpt>
      <trkpt lat="48.20637" lon="7.2951">
        <ele>496</ele>
        <time>2017-10-23T00:40:16Z</time>
      </trkpt>
      <trkpt lat="48.20509" lon="7.29713">
        <ele>518</ele>
        <time>2017-10-23T00:42:16Z</time>
      </trkpt>
      <trkpt lat="48.20553" lon="7.29858">
        <ele>529</ele>
        <time>2017-10-23T00:44:16Z</time>
      </trkpt>
      <trkpt lat="48.20625" lon="7.30118">
        <ele>537</ele>
        <time>2017-10-23T00:46:16Z</time>
      </trkpt>
      <trkpt lat="48.20627" lon="7.30247">
        <ele>546</ele>
        <time>2017-10-23T00:48:16Z</time>
      </trkpt>
      <trkpt lat="48.20557" lon="7.30277">
        <ele>538</ele>
        <time>2017-10-23T00:50:16Z</time>
      </trkpt>
      <trkpt lat="48.20483" lon="7.30275">
        <ele>526</ele>
        <time>2017-10-23T00:52:16Z</time>
      </trkpt>
      <trkpt lat="48.20327" lon="7.30538">
        <ele>518</ele>
        <time>2017-10-23T00:54:16Z</time>
      </trkpt>
      <trkpt lat="48.20352" lon="7.30564">
        <ele>526</ele>
        <time>2017-10-23T00:56:16Z</time>
      </trkpt>
      <trkpt lat="48.20386" lon="7.30624">
        <ele>539</ele>
        <time>2017-10-23T00:58:16Z</time>
      </trkpt>
      <trkpt lat="48.20383" lon="7.30678">
        <ele>536</ele>
        <time>2017-10-23T01:00:16Z</time>
      </trkpt>
      <trkpt lat="48.20371" lon="7.3076">
        <ele>528</ele>
        <time>2017-10-23T01:02:16Z</time>
      </trkpt>
      <trkpt lat="48.20381" lon="7.30715">
        <ele>535</ele>
        <time>2017-10-23T01:04:16Z</time>
      </trkpt>
      <trkpt lat="48.20387" lon="7.30628">
        <ele>539</ele>
        <time>2017-10-23T01:06:16Z</time>
      </trkpt>
      <trkpt lat="48.20331" lon="7.30537">
        <ele>520</ele>
        <time>2017-10-23T01:08:16Z</time>
      </trkpt>
      <trkpt lat="48.20405" lon="7.30574">
        <ele>550</ele>
        <time>2017-10-23T01:10:16Z</time>
      </trkpt>
      <trkpt lat="48.20429" lon="7.30598">
        <ele>562</ele>
        <time>2017-10-23T01:12:16Z</time>
      </trkpt>
      <trkpt lat="48.20432" lon="7.30585">
        <ele>564</ele>
        <time>2017-10-23T01:14:16Z</time>
      </trkpt>
      <trkpt lat="48.20453" lon="7.30614">
        <ele>574</ele>
        <time>2017-10-23T01:16:16Z</time>
      </trkpt>
      <trkpt lat="48.20445" lon="7.30535">
        <ele>573</ele>
        <time>2017-10-23T01:18:16Z</time>
      </trkpt>
      <trkpt lat="48.20461" lon="7.30503">
        <ele>582</ele>
        <time>2017-10-23T01:20:16Z</time>
      </trkpt>
      <trkpt lat="48.20492" lon="7.30609">
        <ele>596</ele>
        <time>2017-10-23T01:22:16Z</time>
      </trkpt>
      <trkpt lat="48.20497" lon="7.3056">
        <ele>601</ele>
        <time>2017-10-23T01:24:16Z</time>
      </trkpt>
      <trkpt lat="48.20524" lon="7.30621">
        <ele>605</ele>
        <time>2017-10-23T01:26:16Z</time>
      </trkpt>
      <trkpt lat="48.20564" lon="7.30547">
        <ele>624</ele>
        <time>2017-10-23T01:28:16Z</time>
      </trkpt>
      <trkpt lat="48.20645" lon="7.30577">
        <ele>634</ele>
        <time>2017-10-23T01:30:16Z</time>
      </trkpt>
      <trkpt lat="48.20601" lon="7.30533">
        <ele>629</ele>
        <time>2017-10-23T01:32:16Z</time>
      </trkpt>
      <trkpt lat="48.20581" lon="7.30522">
        <ele>627</ele>
        <time>2017-10-23T01:34:16Z</time>
      </trkpt>
      <trkpt lat="48.20724" lon="7.30458">
        <ele>610</ele>
        <time>2017-10-23T01:36:16Z</time>
      </trkpt>
      <trkpt lat="48.20861" lon="7.3022">
        <ele>617</ele>
        <time>2017-10-23T01:38:16Z</time>
      </trkpt>
      <trkpt lat="48.20968" lon="7.30228">
        <ele>619</ele>
        <time>2017-10-23T01:40:16Z</time>
      </trkpt>
      <trkpt lat="48.21107" lon="7.30479">
        <ele>591</ele>
        <time>2017-10-23T01:42:16Z</time>
      </trkpt>
      <trkpt lat="48.2125" lon="7.30638">
        <ele>577</ele>
        <time>2017-10-23T01:44:16Z</time>
      </trkpt>
      <trkpt lat="48.21379" lon="7.3022">
        <ele>586</ele>
        <time>2017-10-23T01:46:16Z</time>
      </trkpt>
      <trkpt lat="48.21406" lon="7.30233">
        <ele>577</ele>
        <time>2017-10-23T01:48:16Z</time>
      </trkpt>
      <trkpt lat="48.21419" lon="7.30507">
        <ele>540</ele>
        <time>2017-10-23T01:50:16Z</time>
      </trkpt>
      <trkpt lat="48.21546" lon="7.30707">
        <ele>520</ele>
        <time>2017-10-23T01:52:16Z</time>
      </trkpt>
      <trkpt lat="48.21589" lon="7.30694">
        <ele>533</ele>
        <time>2017-10-23T01:54:16Z</time>
      </trkpt>
      <trkpt lat="48.21624" lon="7.30711">
        <ele>537</ele>
        <time>2017-10-23T01:56:16Z</time>
      </trkpt>
      <trkpt lat="48.21642" lon="7.3078">
        <ele>522</ele>
        <time>2017-10-23T01:58:16Z</time>
      </trkpt>
      <trkpt lat="48.21702" lon="7.30896">
        <ele>506</ele>
        <time>2017-10-23T02:00:16Z</time>
      </trkpt>
      <trkpt lat="48.21744" lon="7.30894">
        <ele>513</ele>
        <time>2017-10-23T02:02:16Z</time>
      </trkpt>
      <trkpt lat="48.21785" lon="7.30887">
        <ele>519</ele>
        <time>2017-10-23T02:04:16Z</time>
      </trkpt>
      <trkpt lat="48.21825" lon="7.30932">
        <ele>509</ele>
        <time>2017-10-23T02:06:16Z</time>
      </trkpt>
      <trkpt lat="48.21968" lon="7.31007">
        <ele>503</ele>
        <time>2017-10-23T02:08:16Z</time>
      </trkpt>
      <trkpt lat="48.22008" lon="7.3096">
        <ele>502</ele>
        <time>2017-10-23T02:10:16Z</time>
      </trkpt>
      <trkpt lat="48.22047" lon="7.30889">
        <ele>498</ele>
        <time>2017-10-23T02:12:16Z</time>
      </trkpt>
      <trkpt lat="48.22067" lon="7.30778">
        <ele>505</ele>
        <time>2017-10-23T02:14:16Z</time>
      </trkpt>
      <trkpt lat="48.2211" lon="7.30825">
        <ele>496</ele>
        <time>2017-10-23T02:16:16Z</time>
      </trkpt>
      <trkpt lat="48.22158" lon="7.30868">
        <ele>490</ele>
        <time>2017-10-23T02:18:16Z</time>
      </trkpt>
      <trkpt lat="48.2223" lon="7.30855">
        <ele>488</ele>
        <time>2017-10-23T02:20:16Z</time>
      </trkpt>
      <trkpt lat="48.2229" lon="7.30774">
        <ele>491</ele>
        <time>2017-10-23T02:22:16Z</time>
      </trkpt>
      <trkpt lat="48.22317" lon="7.30708">
        <ele>490</ele>
        <time>2017-10-23T02:24:16Z</time>
      </trkpt>
      <trkpt lat="48.22311" lon="7.30616">
        <ele>490</ele>
        <time>2017-10-23T02:26:16Z</time>
      </trkpt>
      <trkpt lat="48.223" lon="7.30566">
        <ele>493</ele>
        <time>2017-10-23T02:28:16Z</time>
      </trkpt>
      <trkpt lat="48.22311" lon="7.30513">
        <ele>492</ele>
        <time>2017-10-23T02:30:16Z</time>
      </trkpt>
      <trkpt lat="48.22314" lon="7.30438">
        <ele>502</ele>
        <time>2017-10-23T02:32:16Z</time>
      </trkpt>
      <trkpt lat="48.22403" lon="7.30438">
        <ele>490</ele>
        <time>2017-10-23T02:34:16Z</time>
      </trkpt>
      <trkpt lat="48.22436" lon="7.30474">
        <ele>475</ele>
        <time>2017-10-23T02:36:16Z</time>
      </trkpt>
      <trkpt lat="48.22501" lon="7.30365">
        <ele>476</ele>
        <time>2017-10-23T02:38:16Z</time>
      </trkpt>
      <trkpt lat="48.2254" lon="7.30386">
        <ele>471</ele>
        <time>2017-10-23T02:40:16Z</time>
      </trkpt>
      <trkpt lat="48.2258" lon="7.30455">
        <ele>461</ele>
        <time>2017-10-23T02:42:16Z</time>
      </trkpt>
      <trkpt lat="48.22696" lon="7.30443">
        <ele>465</ele>
        <time>2017-10-23T02:44:16Z</time>
      </trkpt>
    </trkseg>
  </trk>
</gpx>